createdAt,value
2018-01-02T00:00:30.326Z,5.10
2018-01-02T00:03:04.790Z,4.80
2018-01-02T00:05:38.192Z,5.07
2018-01-02T00:08:12.176Z,5.30
2018-01-02T00:10:43.436Z,4.87
2018-01-02T00:13:14.520Z,5.50
2018-01-02T00:15:47.572Z,5.23
2018-01-02T00:18:20.773Z,4.90
2018-01-02T00:20:55.040Z,5.97
2018-01-02T00:23:27.935Z,5.50
2018-01-02T00:26:02.004Z,5.73
2018-01-02T00:28:35.000Z,5.57
2018-01-02T00:31:09.891Z,5.40
2018-01-02T00:33:42.828Z,6.17
2018-01-02T00:36:14.919Z,5.60
2018-01-02T00:38:45.844Z,5.60
2018-01-02T00:41:21.450Z,6.17
2018-01-02T00:43:52.929Z,6.30
2018-01-02T00:46:24.256Z,5.33
2018-01-02T00:48:57.205Z,5.83
2018-01-02T00:51:28.327Z,6.10
2018-01-02T00:54:06.279Z,5.90
2018-01-02T00:56:40.088Z,6.17
2018-01-02T00:59:14.485Z,6.00
2018-01-02T01:01:45.395Z,5.73
2018-01-02T01:04:17.380Z,5.80
2018-01-02T01:06:52.505Z,5.40
2018-01-02T01:09:25.382Z,5.87
2018-01-02T01:11:57.887Z,6.33
2018-01-02T01:14:30.115Z,6.40
2018-01-02T01:17:02.964Z,6.57
2018-01-02T01:19:35.768Z,6.60
2018-01-02T01:22:08.244Z,6.57
2018-01-02T01:24:41.199Z,5.83
2018-01-02T01:27:13.249Z,6.13
2018-01-02T01:29:45.543Z,6.43
2018-01-02T01:32:18.227Z,6.57
2018-01-02T01:34:50.580Z,6.47
2018-01-02T01:37:25.195Z,6.20
2018-01-02T01:39:56.880Z,6.83
2018-01-02T01:42:27.858Z,6.60
2018-01-02T01:45:00.727Z,7.53
2018-01-02T01:47:32.939Z,7.50
2018-01-02T01:50:04.424Z,6.87
2018-01-02T01:52:35.370Z,6.83
2018-01-02T01:55:06.288Z,7.20
2018-01-02T01:57:40.506Z,7.60
2018-01-02T02:00:12.211Z,7.73
2018-01-02T02:02:47.352Z,7.40
2018-01-02T02:05:20.109Z,8.40
2018-01-02T02:07:50.838Z,7.20
2018-01-02T02:10:22.511Z,7.93
2018-01-02T02:12:54.594Z,7.60
2018-01-02T02:15:28.016Z,8.77
2018-01-02T02:17:59.753Z,7.70
2018-01-02T02:20:31.694Z,9.20
2018-01-02T02:23:05.527Z,8.00
2018-01-02T02:25:45.244Z,7.93
2018-01-02T02:28:17.659Z,8.53
2018-01-02T02:30:53.527Z,8.60
2018-01-02T02:33:25.084Z,9.97
2018-01-02T02:35:59.955Z,8.60
2018-01-02T02:38:33.468Z,8.83
2018-01-02T02:41:08.680Z,9.60
2018-01-02T02:43:41.617Z,10.37
2018-01-02T02:46:19.740Z,9.20
2018-01-02T02:48:53.323Z,9.47
2018-01-02T02:51:24.877Z,9.20
2018-01-02T02:53:57.439Z,9.20
2018-01-02T02:56:29.954Z,9.77
2018-01-02T02:59:02.239Z,9.77
2018-01-02T03:01:33.841Z,11.70
2018-01-02T03:04:05.690Z,10.37
2018-01-02T03:06:39.925Z,10.93
2018-01-02T03:09:12.056Z,10.17
2018-01-02T03:11:43.595Z,10.17
2018-01-02T03:14:18.374Z,10.33
2018-01-02T03:16:49.917Z,10.77
2018-01-02T03:19:22.502Z,11.43
2018-01-02T03:21:53.678Z,12.10
2018-01-02T03:24:25.148Z,11.00
2018-01-02T03:27:03.008Z,11.00
2018-01-02T03:29:35.799Z,11.20
2018-01-02T03:32:07.002Z,11.73
2018-01-02T03:34:38.256Z,11.90
2018-01-02T03:37:09.698Z,12.13
2018-01-02T03:39:41.224Z,12.10
2018-01-02T03:42:14.752Z,11.97
2018-01-02T03:44:46.056Z,12.23
2018-01-02T03:47:18.988Z,12.90
2018-01-02T03:49:50.307Z,11.73
2018-01-02T03:52:21.602Z,11.83
2018-01-02T03:54:53.177Z,11.73
2018-01-02T03:57:25.401Z,12.47
2018-01-02T03:59:58.383Z,12.80
2018-01-02T04:02:29.107Z,12.80
2018-01-02T04:05:00.952Z,14.07
2018-01-02T04:07:32.959Z,13.73
2018-01-02T04:10:03.706Z,13.63
2018-01-02T04:12:34.544Z,13.47
2018-01-02T04:15:08.139Z,15.20
2018-01-02T04:17:42.291Z,14.37
2018-01-02T04:20:16.538Z,14.60
2018-01-02T04:22:49.668Z,14.77
2018-01-02T04:25:24.571Z,14.93
2018-01-02T04:27:58.297Z,14.80
2018-01-02T04:30:30.392Z,14.83
2018-01-02T04:33:02.967Z,15.10
2018-01-02T04:35:36.795Z,15.30
2018-01-02T04:38:09.631Z,14.63
2018-01-02T04:40:57.259Z,14.57
2018-01-02T04:43:30.354Z,15.37
2018-01-02T04:46:04.576Z,15.63
2018-01-02T04:48:36.841Z,15.23
2018-01-02T04:51:08.791Z,15.90
2018-01-02T04:53:42.704Z,16.27
2018-01-02T04:56:13.367Z,17.40
2018-01-02T04:58:45.918Z,18.27
2018-01-02T05:01:18.474Z,17.30
2018-01-02T05:03:50.114Z,17.97
2018-01-02T05:06:23.080Z,17.67
2018-01-02T05:08:55.191Z,17.57
2018-01-02T05:11:25.988Z,18.10
2018-01-02T05:13:59.985Z,20.40
2018-01-02T05:16:33.183Z,20.50
2018-01-02T05:21:43.811Z,20.03
2018-01-02T05:24:21.249Z,19.77
2018-01-02T05:26:57.466Z,22.33
2018-01-02T05:29:30.728Z,22.80
2018-01-02T05:32:02.196Z,22.07
2018-01-02T05:34:36.307Z,23.57
2018-01-02T05:37:08.136Z,23.13
2018-01-02T05:39:39.848Z,24.43
2018-01-02T05:42:13.807Z,23.90
2018-01-02T05:44:46.460Z,24.57
2018-01-02T05:49:58.782Z,25.27
2018-01-02T05:52:30.219Z,25.23
2018-01-02T05:55:05.507Z,26.53
2018-01-02T05:57:40.019Z,24.87
2018-01-02T06:00:16.940Z,25.97
2018-01-02T06:02:48.895Z,26.70
2018-01-02T06:05:20.655Z,25.30
2018-01-02T06:07:52.881Z,26.03
2018-01-02T06:10:23.647Z,26.67
2018-01-02T06:13:02.971Z,27.63
2018-01-02T06:15:35.376Z,26.57
2018-01-02T06:18:08.231Z,27.30
2018-01-02T06:20:39.795Z,27.73
2018-01-02T06:23:13.747Z,25.27
2018-01-02T06:25:46.952Z,26.50
2018-01-02T06:28:20.159Z,26.97
2018-01-02T06:30:53.079Z,28.37
2018-01-02T06:33:24.083Z,25.60
2018-01-02T06:35:57.991Z,25.27
2018-01-02T06:38:36.154Z,25.10
2018-01-02T06:41:06.871Z,25.50
2018-01-02T06:43:39.909Z,24.70
2018-01-02T06:46:13.320Z,26.17
2018-01-02T06:48:47.919Z,24.77
2018-01-02T06:51:19.389Z,25.30
2018-01-02T06:54:02.853Z,24.20
2018-01-02T06:56:36.401Z,25.50
2018-01-02T06:59:08.140Z,25.23
2018-01-02T07:01:39.175Z,25.10
2018-01-02T07:04:10.235Z,26.13
2018-01-02T07:06:41.774Z,26.03
2018-01-02T07:09:15.746Z,25.23
2018-01-02T07:11:48.967Z,25.50
2018-01-02T07:14:22.925Z,26.70
2018-01-02T07:16:59.873Z,27.83
2018-01-02T07:19:32.275Z,26.70
2018-01-02T07:22:03.778Z,28.00
2018-01-02T07:24:36.407Z,27.33
2018-01-02T07:27:09.360Z,27.43
2018-01-02T07:29:42.054Z,28.03
2018-01-02T07:32:15.581Z,27.97
2018-01-02T07:34:49.136Z,29.30
2018-01-02T07:37:20.830Z,29.20
2018-01-02T07:39:53.118Z,27.77
2018-01-02T07:42:24.991Z,27.47
2018-01-02T07:44:55.726Z,27.20
2018-01-02T07:47:26.368Z,29.40
2018-01-02T07:50:00.157Z,27.20
2018-01-02T07:52:31.187Z,27.43
2018-01-02T07:55:01.867Z,30.27
2018-01-02T07:57:33.282Z,28.50
2018-01-02T08:00:03.963Z,27.83
2018-01-02T08:02:40.374Z,27.70
2018-01-02T08:05:11.811Z,26.00
2018-01-02T08:07:43.004Z,27.73
2018-01-02T08:10:14.451Z,26.63
2018-01-02T08:12:45.451Z,25.37
2018-01-02T08:15:16.263Z,26.00
2018-01-02T08:17:48.500Z,26.13
2018-01-02T08:20:19.211Z,24.73
2018-01-02T08:22:50.128Z,24.67
2018-01-02T08:25:21.192Z,24.07
2018-01-02T08:27:51.832Z,22.27
2018-01-02T08:30:25.026Z,24.23
2018-01-02T08:32:57.251Z,26.57
2018-01-02T08:35:28.694Z,23.43
2018-01-02T08:38:00.934Z,25.17
2018-01-02T08:40:33.770Z,25.10
2018-01-02T08:43:05.797Z,24.73
2018-01-02T08:45:38.092Z,24.63
2018-01-02T08:48:11.543Z,24.77
2018-01-02T08:50:42.289Z,24.30
2018-01-02T08:53:13.458Z,24.23
2018-01-02T08:55:44.419Z,23.23
2018-01-02T08:58:15.884Z,22.50
2018-01-02T09:00:46.658Z,22.37
2018-01-02T09:03:19.398Z,22.03
2018-01-02T09:05:50.081Z,22.57
2018-01-02T09:08:21.299Z,20.20
2018-01-02T09:10:52.705Z,20.83
2018-01-02T09:13:27.445Z,19.53
2018-01-02T09:15:59.582Z,20.07
2018-01-02T09:18:33.357Z,18.37
2018-01-02T09:21:04.609Z,18.90
2018-01-02T09:23:35.595Z,18.20
2018-01-02T09:26:06.593Z,17.93
2018-01-02T09:28:40.364Z,16.33
2018-01-02T09:31:12.063Z,16.23
2018-01-02T09:33:43.940Z,15.00
2018-01-02T09:36:16.625Z,13.50
2018-01-02T09:38:48.735Z,14.50
2018-01-02T09:41:21.399Z,13.73
2018-01-02T09:43:53.807Z,12.87
2018-01-02T09:46:26.585Z,11.90
2018-01-02T09:48:58.001Z,11.93
2018-01-02T09:51:29.191Z,12.83
2018-01-02T09:54:03.100Z,12.37
2018-01-02T09:56:36.147Z,12.40
2018-01-02T09:59:07.324Z,12.37
2018-01-02T10:01:39.826Z,12.13
2018-01-02T10:04:11.775Z,12.47
2018-01-02T10:06:42.885Z,11.70
2018-01-02T10:09:13.915Z,12.10
2018-01-02T10:11:45.287Z,13.47
2018-01-02T10:14:15.895Z,12.03
2018-01-02T10:16:46.500Z,11.80
2018-01-02T10:19:17.459Z,11.80
2018-01-02T10:21:51.830Z,10.70
2018-01-02T10:24:26.143Z,10.70
2018-01-02T10:26:58.727Z,9.77
2018-01-02T10:29:34.015Z,8.73
2018-01-02T10:32:05.643Z,9.93
2018-01-02T10:34:39.553Z,9.73
2018-01-02T10:37:11.657Z,8.30
2018-01-02T10:39:45.362Z,9.57
2018-01-02T10:42:17.403Z,8.37
2018-01-02T10:44:51.498Z,9.10
2018-01-02T10:47:22.198Z,9.20
2018-01-02T10:52:32.715Z,9.50
2018-01-02T10:55:04.872Z,8.50
2018-01-02T10:57:36.073Z,9.53
2018-01-02T11:00:07.243Z,9.70
2018-01-02T11:02:39.042Z,9.30
2018-01-02T11:05:09.802Z,9.17
2018-01-02T11:07:42.611Z,9.40
2018-01-02T11:10:16.372Z,9.70
2018-01-02T11:12:51.164Z,9.27
2018-01-02T11:15:23.009Z,8.47
2018-01-02T11:17:53.636Z,9.27
2018-01-02T11:20:25.486Z,8.97
2018-01-02T11:22:56.546Z,9.67
2018-01-02T11:25:31.042Z,8.93
2018-01-02T11:28:01.924Z,8.10
2018-01-02T11:30:32.557Z,7.63
2018-01-02T11:33:03.228Z,7.57
2018-01-02T11:35:35.169Z,7.83
2018-01-02T11:38:09.016Z,7.17
2018-01-02T11:40:42.688Z,7.03
2018-01-02T11:43:13.609Z,7.37
2018-01-02T11:45:47.625Z,7.00
2018-01-02T11:48:21.539Z,6.40
2018-01-02T11:50:53.284Z,5.47
2018-01-02T11:53:24.827Z,5.60
2018-01-02T11:55:55.881Z,5.63
2018-01-02T11:58:26.599Z,5.50
2018-01-02T12:00:58.909Z,5.40
2018-01-02T12:03:30.946Z,5.03
2018-01-02T12:06:02.042Z,5.13
2018-01-02T12:08:33.433Z,5.30
2018-01-02T12:11:04.555Z,4.40
2018-01-02T12:13:35.301Z,4.57
2018-01-02T12:16:05.972Z,5.00
2018-01-02T12:18:36.597Z,4.40
2018-01-02T12:21:07.495Z,4.43
2018-01-02T12:23:39.174Z,3.93
2018-01-02T12:26:11.371Z,4.33
2018-01-02T12:28:47.094Z,3.97
2018-01-02T12:31:20.803Z,4.00
2018-01-02T12:33:52.669Z,4.20
2018-01-02T12:36:25.219Z,3.97
2018-01-02T12:38:57.415Z,3.63
2018-01-02T12:41:28.446Z,3.97
2018-01-02T12:44:00.248Z,4.60
2018-01-02T12:46:31.970Z,4.27
2018-01-02T12:49:06.216Z,4.60
2018-01-02T12:51:37.743Z,4.20
2018-01-02T12:54:08.424Z,5.20
2018-01-02T12:56:39.172Z,4.90
2018-01-02T12:59:12.015Z,5.80
2018-01-02T13:01:43.577Z,5.77
2018-01-02T13:04:18.819Z,6.37
2018-01-02T13:06:51.224Z,5.67
2018-01-02T13:09:26.648Z,5.60
2018-01-02T13:11:58.024Z,5.97
2018-01-02T13:14:29.772Z,5.87
2018-01-02T13:17:01.211Z,5.47
2018-01-02T13:19:31.955Z,5.50
2018-01-02T13:22:02.757Z,6.40
2018-01-02T13:24:33.717Z,6.50
2018-01-02T13:27:05.138Z,6.07
2018-01-02T13:29:36.371Z,5.83
2018-01-02T13:32:07.795Z,6.30
2018-01-02T13:34:39.221Z,6.70
2018-01-02T13:37:10.818Z,6.73
2018-01-02T13:39:42.716Z,6.10
2018-01-02T13:42:17.316Z,5.30
2018-01-02T13:44:49.764Z,5.53
2018-01-02T13:47:21.081Z,5.83
2018-01-02T13:49:53.968Z,4.77
2018-01-02T13:52:29.962Z,4.90
2018-01-02T13:55:04.021Z,5.13
2018-01-02T13:57:36.451Z,5.07
2018-01-02T14:00:07.771Z,5.40
2018-01-02T14:02:38.720Z,5.07
2018-01-02T14:05:10.452Z,5.27
2018-01-02T14:07:41.402Z,5.83
2018-01-02T14:10:32.616Z,5.07
2018-01-02T14:13:18.648Z,5.40
2018-01-02T14:15:55.484Z,5.20
2018-01-02T14:18:26.860Z,5.07
2018-01-02T14:20:58.831Z,4.27
2018-01-02T14:23:29.567Z,4.63
2018-01-02T14:26:00.704Z,4.80
2018-01-02T14:28:39.737Z,4.67
2018-01-02T14:33:53.091Z,5.33
2018-01-02T14:36:26.954Z,4.70
2018-01-02T14:39:01.236Z,4.10
2018-01-02T14:41:35.280Z,5.00
2018-01-02T14:44:08.725Z,5.03
2018-01-02T14:46:49.101Z,4.43
2018-01-02T14:49:22.655Z,4.43
2018-01-02T14:51:55.842Z,4.67
2018-01-02T14:54:30.858Z,5.30
2018-01-02T14:57:01.884Z,4.90
2018-01-02T14:59:36.699Z,5.37
2018-01-02T15:02:11.533Z,5.43
2018-01-02T15:04:46.700Z,5.20
2018-01-02T15:07:19.682Z,5.00
2018-01-02T15:10:30.344Z,4.50
2018-01-02T15:13:06.042Z,4.60
2018-01-02T15:15:46.965Z,3.97
2018-01-02T15:18:20.826Z,4.40
2018-01-02T15:20:53.359Z,4.17
2018-01-02T15:23:24.141Z,4.00
2018-01-02T15:25:55.077Z,3.77
2018-01-02T15:28:27.333Z,4.57
2018-01-02T15:30:59.388Z,4.63
2018-01-02T15:33:32.382Z,4.57
2018-01-02T15:36:04.446Z,4.03
2018-01-02T15:38:38.149Z,4.20
2018-01-02T15:41:12.488Z,4.40
2018-01-02T15:43:45.783Z,3.87
2018-01-02T15:46:17.238Z,3.87
2018-01-02T15:48:50.432Z,3.73
2018-01-02T15:51:22.604Z,3.60
2018-01-02T15:53:56.176Z,3.23
2018-01-02T15:56:32.590Z,3.40
2018-01-02T15:59:04.831Z,3.60
2018-01-02T16:01:39.511Z,3.20
2018-01-02T16:04:13.430Z,3.77
2018-01-02T16:06:46.542Z,4.80
2018-01-02T16:09:20.132Z,5.70
2018-01-02T16:11:55.278Z,6.20
2018-01-02T16:14:29.987Z,3.80
2018-01-02T16:17:02.412Z,3.50
2018-01-02T16:19:35.701Z,3.57
2018-01-02T16:22:07.728Z,4.50
2018-01-02T16:24:39.850Z,4.03
2018-01-02T16:27:11.127Z,4.03
2018-01-02T16:29:42.184Z,3.57
2018-01-02T16:32:13.236Z,3.80
2018-01-02T16:34:44.186Z,3.87
2018-01-02T16:37:15.174Z,3.70
2018-01-02T16:39:48.752Z,3.77
2018-01-02T16:42:19.857Z,4.20
2018-01-02T16:44:54.521Z,4.00
2018-01-02T16:47:27.856Z,3.97
2018-01-02T16:50:01.026Z,4.27
2018-01-02T16:52:33.053Z,4.70
2018-01-02T16:55:07.432Z,4.30
2018-01-02T16:57:41.621Z,4.07
2018-01-02T17:00:14.638Z,4.10
2018-01-02T17:02:47.449Z,3.50
2018-01-02T17:05:20.465Z,3.97
2018-01-02T17:07:52.817Z,3.70
2018-01-02T17:10:27.459Z,3.73
2018-01-02T17:13:02.665Z,4.00
2018-01-02T17:15:41.939Z,4.43
2018-01-02T17:18:14.450Z,4.03
2018-01-02T17:20:50.748Z,4.47
2018-01-02T17:23:23.138Z,4.37
2018-01-02T17:25:57.909Z,3.80
2018-01-02T17:28:30.801Z,4.23
2018-01-02T17:31:02.111Z,4.73
2018-01-02T17:33:34.382Z,4.90
2018-01-02T17:36:06.672Z,5.20
2018-01-02T17:38:41.556Z,5.47
2018-01-02T17:41:14.192Z,5.43
2018-01-02T17:43:47.097Z,6.40
2018-01-02T17:46:23.355Z,5.80
2018-01-02T17:48:57.439Z,6.33
2018-01-02T17:51:28.523Z,6.20
2018-01-02T17:54:08.130Z,6.30
2018-01-02T17:56:39.812Z,6.23
2018-01-02T17:59:16.772Z,6.03
2018-01-02T18:01:55.408Z,6.47
2018-01-02T18:04:34.993Z,7.00
2018-01-02T18:07:10.264Z,6.67
2018-01-02T18:09:44.343Z,7.60
2018-01-02T18:12:19.288Z,7.67
2018-01-02T18:14:58.586Z,8.50
2018-01-02T18:17:37.140Z,7.57
2018-01-02T18:20:19.706Z,8.87
2018-01-02T18:22:57.044Z,9.20
2018-01-02T18:25:31.357Z,9.33
2018-01-02T18:28:06.489Z,8.90
2018-01-02T18:30:41.312Z,9.90
2018-01-02T18:33:13.583Z,9.50
2018-01-02T18:35:46.765Z,9.07
2018-01-02T18:38:18.521Z,9.10
2018-01-02T18:40:51.037Z,9.67
2018-01-02T18:43:26.789Z,9.63
2018-01-02T18:46:04.755Z,10.00
2018-01-02T18:48:39.974Z,9.73
2018-01-02T18:51:13.246Z,9.70
2018-01-02T18:53:47.160Z,11.20
2018-01-02T18:56:19.575Z,10.83
2018-01-02T18:58:51.515Z,11.80
2018-01-02T19:01:29.248Z,11.67
2018-01-02T19:04:13.240Z,13.27
2018-01-02T19:06:47.440Z,13.03
2018-01-02T19:09:21.917Z,12.60
2018-01-02T19:11:55.627Z,12.60
2018-01-02T19:14:32.042Z,14.50
2018-01-02T19:17:05.591Z,13.50
2018-01-02T19:19:42.475Z,14.77
2018-01-02T19:22:18.667Z,13.17
2018-01-02T19:24:55.201Z,13.70
2018-01-02T19:27:30.560Z,14.30
2018-01-02T19:30:03.993Z,14.83
2018-01-02T19:32:38.481Z,14.77
2018-01-02T19:35:11.740Z,15.90
2018-01-02T19:37:43.461Z,15.70
2018-01-02T19:40:17.764Z,15.60
2018-01-02T19:42:51.616Z,15.60
2018-01-02T19:45:24.287Z,16.03
2018-01-02T19:48:02.834Z,15.87
2018-01-02T19:50:34.540Z,16.93
2018-01-02T19:53:07.573Z,16.33
2018-01-02T19:55:45.325Z,15.33
2018-01-02T19:58:19.227Z,15.33
2018-01-02T20:00:53.725Z,15.90
2018-01-02T20:03:26.958Z,16.50
2018-01-02T20:05:58.714Z,17.13
2018-01-02T20:08:32.826Z,16.90
2018-01-02T20:11:19.268Z,16.67
2018-01-02T20:13:55.384Z,16.63
2018-01-02T20:16:31.166Z,17.07
2018-01-02T20:19:06.235Z,16.90
2018-01-02T20:21:39.300Z,16.53
2018-01-02T20:24:13.211Z,18.00
2018-01-02T20:26:46.940Z,18.00
2018-01-02T20:29:20.592Z,17.20
2018-01-02T20:31:53.702Z,17.90
2018-01-02T20:34:29.223Z,18.23
2018-01-02T20:37:02.282Z,19.57
2018-01-02T20:39:34.739Z,24.57
2018-01-02T20:42:06.066Z,20.13
2018-01-02T20:44:38.467Z,19.50
2018-01-02T20:47:10.152Z,19.93
2018-01-02T20:49:43.208Z,20.57
2018-01-02T20:52:16.829Z,20.67
2018-01-02T20:54:48.226Z,20.37
2018-01-02T20:57:20.473Z,19.57
2018-01-02T20:59:52.093Z,20.13
2018-01-02T21:02:25.395Z,20.60
2018-01-02T21:05:00.472Z,21.20
2018-01-02T21:07:32.445Z,21.93
2018-01-02T21:10:05.186Z,20.87
2018-01-02T21:12:38.967Z,21.00
2018-01-02T21:15:11.183Z,20.83
2018-01-02T21:17:42.846Z,19.67
2018-01-02T21:20:14.305Z,20.30
2018-01-02T21:22:47.192Z,20.83
2018-01-02T21:25:19.316Z,19.73
2018-01-02T21:27:50.723Z,20.30
2018-01-02T21:30:22.420Z,19.80
2018-01-02T21:32:53.994Z,19.47
2018-01-02T21:35:26.281Z,19.53
2018-01-02T21:37:57.455Z,17.73
2018-01-02T21:40:29.928Z,18.57
2018-01-02T21:43:01.992Z,18.27
2018-01-02T21:45:33.414Z,18.87
2018-01-02T21:48:05.806Z,17.70
2018-01-02T21:50:37.261Z,17.07
2018-01-02T21:53:08.328Z,18.33
2018-01-02T21:55:41.918Z,16.60
2018-01-02T21:58:14.286Z,17.27
2018-01-02T22:00:46.640Z,15.60
2018-01-02T22:03:17.961Z,16.53
2018-01-02T22:05:49.967Z,16.57
2018-01-02T22:08:21.940Z,15.10
2018-01-02T22:10:55.994Z,15.27
2018-01-02T22:13:29.206Z,14.43
2018-01-02T22:16:01.607Z,15.37
2018-01-02T22:18:33.616Z,14.13
2018-01-02T22:21:07.927Z,13.87
2018-01-02T22:23:39.379Z,14.60
2018-01-02T22:26:11.023Z,12.80
2018-01-02T22:28:42.103Z,12.70
2018-01-02T22:31:13.756Z,12.10
2018-01-02T22:33:47.774Z,11.43
2018-01-02T22:36:20.886Z,10.67
2018-01-02T22:38:53.468Z,10.47
2018-01-02T22:41:24.633Z,10.10
2018-01-02T22:43:56.457Z,9.27
2018-01-02T22:46:27.887Z,9.20
2018-01-02T22:48:59.821Z,9.67
2018-01-02T22:51:30.814Z,9.40
2018-01-02T22:54:02.628Z,8.83
2018-01-02T22:56:34.303Z,8.87
2018-01-02T22:59:07.891Z,8.93
2018-01-02T23:01:40.792Z,10.60
2018-01-02T23:04:13.501Z,9.00
2018-01-02T23:06:47.298Z,9.17
2018-01-02T23:09:19.139Z,9.33
2018-01-02T23:11:51.257Z,9.53
2018-01-02T23:18:29.129Z,9.87
2018-01-02T23:20:59.991Z,9.23
2018-01-02T23:23:31.763Z,8.93
2018-01-02T23:26:03.146Z,9.80
2018-01-02T23:28:34.455Z,9.93
2018-01-02T23:31:10.115Z,8.90
2018-01-02T23:33:43.332Z,9.73
2018-01-02T23:36:14.897Z,10.03
2018-01-02T23:38:46.630Z,9.97
2018-01-02T23:41:17.651Z,10.70
2018-01-02T23:43:49.489Z,9.40
2018-01-02T23:46:21.010Z,9.20
2018-01-02T23:48:52.003Z,9.57
2018-01-02T23:51:23.173Z,10.37
2018-01-02T23:53:55.864Z,8.90
2018-01-02T23:56:27.363Z,9.90
2018-01-02T23:58:59.141Z,9.87
